sensor_id;sensor_type;location;lat;lon;timestamp;pressure;altitude;pressure_sealevel;temperature;humidity
72157;BME280;60035;52.122;5.406;2023-09-19T00:00:17;100843.41;;;14.36;100.00
72157;BME280;60035;52.122;5.406;2023-09-19T00:02:55;100848.72;;;14.33;100.00
72157;BME280;60035;52.122;5.406;2023-09-19T00:05:26;100852.34;;;14.29;100.00
72157;BME280;60035;52.122;5.406;2023-09-19T00:07:56;100847.22;;;14.27;100.00
72157;BME280;60035;52.122;5.406;2023-09-19T00:10:26;100858.50;;;14.25;100.00
72157;BME280;60035;52.122;5.406;2023-09-19T00:12:54;100862.06;;;14.22;100.00
72157;BME280;60035;52.122;5.406;2023-09-19T00:15:25;100863.94;;;14.19;100.00
72157;BME280;60035;52.122;5.406;2023-09-19T00:17:56;100868.25;;;14.18;100.00
72157;BME280;60035;52.122;5.406;2023-09-19T00:20:23;100872.50;;;14.19;100.00
72157;BME280;60035;52.122;5.406;2023-09-19T00:22:51;100869.81;;;14.22;100.00
72157;BME280;60035;52.122;5.406;2023-09-19T00:25:19;100867.22;;;14.22;100.00
72157;BME280;60035;52.122;5.406;2023-09-19T00:27:47;100864.66;;;14.22;100.00
72157;BME280;60035;52.122;5.406;2023-09-19T00:30:16;100870.63;;;14.23;100.00
72157;BME280;60035;52.122;5.406;2023-09-19T00:32:47;100878.34;;;14.23;100.00
72157;BME280;60035;52.122;5.406;2023-09-19T00:35:14;100865.63;;;14.20;100.00
72157;BME280;60035;52.122;5.406;2023-09-19T00:37:43;100875.78;;;14.23;100.00
72157;BME280;60035;52.122;5.406;2023-09-19T00:40:10;100874.88;;;14.24;100.00
72157;BME280;60035;52.122;5.406;2023-09-19T00:42:39;100872.16;;;14.27;100.00
72157;BME280;60035;52.122;5.406;2023-09-19T00:45:08;100875.56;;;14.27;100.00
72157;BME280;60035;52.122;5.406;2023-09-19T00:47:39;100876.34;;;14.29;100.00
72157;BME280;60035;52.122;5.406;2023-09-19T00:50:08;100875.44;;;14.30;100.00
72157;BME280;60035;52.122;5.406;2023-09-19T00:52:38;100883.09;;;14.32;100.00
72157;BME280;60035;52.122;5.406;2023-09-19T00:55:06;100878.72;;;14.34;100.00
72157;BME280;60035;52.122;5.406;2023-09-19T00:57:34;100887.28;;;14.35;100.00
72157;BME280;60035;52.122;5.406;2023-09-19T01:00:03;100888.03;;;14.37;100.00
72157;BME280;60035;52.122;5.406;2023-09-19T01:02:35;100893.25;;;14.35;100.00
72157;BME280;60035;52.122;5.406;2023-09-19T01:05:02;100888.81;;;14.39;100.00
72157;BME280;60035;52.122;5.406;2023-09-19T01:07:32;100893.00;;;14.41;100.00
72157;BME280;60035;52.122;5.406;2023-09-19T01:10:04;100891.22;;;14.42;100.00
72157;BME280;60035;52.122;5.406;2023-09-19T01:23:23;100897.34;;;14.39;100.00
72157;BME280;60035;52.122;5.406;2023-09-19T01:29:02;100894.94;;;14.36;100.00
72157;BME280;60035;52.122;5.406;2023-09-19T01:31:34;100899.25;;;14.36;100.00
72157;BME280;60035;52.122;5.406;2023-09-19T01:34:04;100895.75;;;14.37;100.00
72157;BME280;60035;52.122;5.406;2023-09-19T01:36:36;100901.75;;;14.37;100.00
72157;BME280;60035;52.122;5.406;2023-09-19T01:39:05;100893.13;;;14.38;100.00
72157;BME280;60035;52.122;5.406;2023-09-19T01:42:04;100894.03;;;14.37;100.00
72157;BME280;60035;52.122;5.406;2023-09-19T01:44:54;100898.34;;;14.37;100.00
72157;BME280;60035;52.122;5.406;2023-09-19T01:47:34;100905.31;;;14.35;100.00
72157;BME280;60035;52.122;5.406;2023-09-19T01:52:38;100900.09;;;14.36;100.00
72157;BME280;60035;52.122;5.406;2023-09-19T01:55:09;100903.47;;;14.37;100.00
72157;BME280;60035;52.122;5.406;2023-09-19T02:00:27;100907.06;;;14.34;100.00
72157;BME280;60035;52.122;5.406;2023-09-19T02:02:56;100908.84;;;14.32;100.00
72157;BME280;60035;52.122;5.406;2023-09-19T02:05:25;100908.06;;;14.30;100.00
72157;BME280;60035;52.122;5.406;2023-09-19T02:07:53;100911.63;;;14.27;100.00
72157;BME280;60035;52.122;5.406;2023-09-19T02:10:20;100910.78;;;14.27;100.00
72157;BME280;60035;52.122;5.406;2023-09-19T02:12:47;100909.13;;;14.26;100.00
72157;BME280;60035;52.122;5.406;2023-09-19T02:15:14;100903.06;;;14.27;100.00
72157;BME280;60035;52.122;5.406;2023-09-19T02:17:44;100903.97;;;14.26;100.00
72157;BME280;60035;52.122;5.406;2023-09-19T02:20:12;100897.13;;;14.25;100.00
72157;BME280;60035;52.122;5.406;2023-09-19T02:22:43;100899.72;;;14.25;100.00
72157;BME280;60035;52.122;5.406;2023-09-19T02:25:10;100903.28;;;14.22;100.00
72157;BME280;60035;52.122;5.406;2023-09-19T02:27:37;100906.03;;;14.18;100.00
72157;BME280;60035;52.122;5.406;2023-09-19T02:30:05;100907.72;;;14.19;100.00
72157;BME280;60035;52.122;5.406;2023-09-19T02:32:32;100926.56;;;14.19;100.00
72157;BME280;60035;52.122;5.406;2023-09-19T02:35:02;100915.44;;;14.19;100.00
72157;BME280;60035;52.122;5.406;2023-09-19T02:37:31;100921.56;;;14.16;100.00
72157;BME280;60035;52.122;5.406;2023-09-19T02:39:57;100922.47;;;14.15;100.00
72157;BME280;60035;52.122;5.406;2023-09-19T02:42:24;100928.50;;;14.14;100.00
72157;BME280;60035;52.122;5.406;2023-09-19T02:44:51;100924.41;;;14.10;100.00
72157;BME280;60035;52.122;5.406;2023-09-19T02:47:17;100922.88;;;14.06;100.00
72157;BME280;60035;52.122;5.406;2023-09-19T02:49:45;100915.38;;;13.99;100.00
72157;BME280;60035;52.122;5.406;2023-09-19T02:52:12;100917.28;;;13.96;100.00
72157;BME280;60035;52.122;5.406;2023-09-19T02:54:41;100919.22;;;13.91;100.00
72157;BME280;60035;52.122;5.406;2023-09-19T02:57:08;100927.91;;;13.88;100.00
72157;BME280;60035;52.122;5.406;2023-09-19T02:59:34;100926.34;;;13.84;100.00
72157;BME280;60035;52.122;5.406;2023-09-19T03:02:03;100921.47;;;13.78;100.00
72157;BME280;60035;52.122;5.406;2023-09-19T03:04:31;100925.94;;;13.73;100.00
72157;BME280;60035;52.122;5.406;2023-09-19T03:06:59;100928.72;;;13.68;100.00
72157;BME280;60035;52.122;5.406;2023-09-19T03:09:27;100928.91;;;13.63;100.00
72157;BME280;60035;52.122;5.406;2023-09-19T03:11:54;100918.84;;;13.57;100.00
72157;BME280;60035;52.122;5.406;2023-09-19T03:14:20;100920.84;;;13.50;100.00
72157;BME280;60035;52.122;5.406;2023-09-19T03:16:47;100918.53;;;13.44;100.00
72157;BME280;60035;52.122;5.406;2023-09-19T03:19:14;100923.03;;;13.39;100.00
72157;BME280;60035;52.122;5.406;2023-09-19T03:21:41;100924.91;;;13.34;100.00
72157;BME280;60035;52.122;5.406;2023-09-19T03:24:08;100923.28;;;13.31;100.00
72157;BME280;60035;52.122;5.406;2023-09-19T03:26:35;100921.69;;;13.29;100.00
72157;BME280;60035;52.122;5.406;2023-09-19T03:29:04;100930.41;;;13.25;100.00
72157;BME280;60035;52.122;5.406;2023-09-19T03:31:34;100927.97;;;13.22;100.00
72157;BME280;60035;52.122;5.406;2023-09-19T03:34:03;100932.31;;;13.20;100.00
72157;BME280;60035;52.122;5.406;2023-09-19T03:36:30;100935.06;;;13.15;100.00
72157;BME280;60035;52.122;5.406;2023-09-19T03:38:57;100933.50;;;13.11;100.00
72157;BME280;60035;52.122;5.406;2023-09-19T03:41:26;100928.50;;;13.08;100.00
72157;BME280;60035;52.122;5.406;2023-09-19T03:43:53;100914.91;;;13.04;100.00
72157;BME280;60035;52.122;5.406;2023-09-19T03:46:20;100911.69;;;12.99;100.00
72157;BME280;60035;52.122;5.406;2023-09-19T03:48:46;100915.22;;;12.96;100.00
72157;BME280;60035;52.122;5.406;2023-09-19T03:51:13;100914.56;;;12.91;100.00
72157;BME280;60035;52.122;5.406;2023-09-19T03:53:40;100923.19;;;12.90;100.00
72157;BME280;60035;52.122;5.406;2023-09-19T03:56:07;100917.25;;;12.88;100.00
72157;BME280;60035;52.122;5.406;2023-09-19T03:58:34;100925.91;;;12.86;100.00
72157;BME280;60035;52.122;5.406;2023-09-19T04:01:06;100923.53;;;12.81;100.00
72157;BME280;60035;52.122;5.406;2023-09-19T04:03:36;100929.56;;;12.80;100.00
72157;BME280;60035;52.122;5.406;2023-09-19T04:06:16;100932.25;;;12.77;100.00
72157;BME280;60035;52.122;5.406;2023-09-19T04:08:43;100939.22;;;12.73;100.00
72157;BME280;60035;52.122;5.406;2023-09-19T04:11:10;100944.41;;;12.72;100.00
72157;BME280;60035;52.122;5.406;2023-09-19T04:13:37;100953.03;;;12.71;100.00
72157;BME280;60035;52.122;5.406;2023-09-19T04:16:04;100952.28;;;12.67;100.00
72157;BME280;60035;52.122;5.406;2023-09-19T04:18:33;100955.72;;;12.68;100.00
72157;BME280;60035;52.122;5.406;2023-09-19T04:21:04;100954.97;;;12.64;100.00
72157;BME280;60035;52.122;5.406;2023-09-19T04:23:32;100957.59;;;12.62;100.00
72157;BME280;60035;52.122;5.406;2023-09-19T04:25:59;100961.94;;;12.60;100.00
72157;BME280;60035;52.122;5.406;2023-09-19T04:28:26;100963.75;;;12.58;100.00
72157;BME280;60035;52.122;5.406;2023-09-19T04:30:54;100976.53;;;12.60;100.00
72157;BME280;60035;52.122;5.406;2023-09-19T04:33:21;100976.59;;;12.58;100.00
72157;BME280;60035;52.122;5.406;2023-09-19T04:35:51;100975.69;;;12.59;100.00
72157;BME280;60035;52.122;5.406;2023-09-19T04:38:18;100992.00;;;12.58;100.00
72157;BME280;60035;52.122;5.406;2023-09-19T04:40:48;100992.84;;;12.59;100.00
72157;BME280;60035;52.122;5.406;2023-09-19T04:43:15;100996.22;;;12.59;100.00
72157;BME280;60035;52.122;5.406;2023-09-19T04:45:42;100995.41;;;12.59;100.00
72157;BME280;60035;52.122;5.406;2023-09-19T04:48:09;100996.22;;;12.59;100.00
72157;BME280;60035;52.122;5.406;2023-09-19T04:50:35;100998.78;;;12.59;100.00
72157;BME280;60035;52.122;5.406;2023-09-19T04:53:03;100992.72;;;12.62;100.00
72157;BME280;60035;52.122;5.406;2023-09-19T04:55:31;100984.19;;;12.61;100.00
72157;BME280;60035;52.122;5.406;2023-09-19T04:57:59;100985.94;;;12.61;100.00
72157;BME280;60035;52.122;5.406;2023-09-19T05:00:26;100984.25;;;12.60;100.00
72157;BME280;60035;52.122;5.406;2023-09-19T05:02:56;100977.41;;;12.59;100.00
72157;BME280;60035;52.122;5.406;2023-09-19T05:05:24;100985.06;;;12.60;100.00
72157;BME280;60035;52.122;5.406;2023-09-19T05:07:51;100985.94;;;12.61;100.00
72157;BME280;60035;52.122;5.406;2023-09-19T05:10:20;100990.94;;;12.64;100.00
72157;BME280;60035;52.122;5.406;2023-09-19T05:12:47;100998.66;;;12.64;100.00
72157;BME280;60035;52.122;5.406;2023-09-19T05:15:14;101000.38;;;12.63;100.00
72157;BME280;60035;52.122;5.406;2023-09-19T05:17:50;100993.44;;;12.65;100.00
72157;BME280;60035;52.122;5.406;2023-09-19T05:20:22;100996.81;;;12.68;100.00
72157;BME280;60035;52.122;5.406;2023-09-19T05:23:06;101001.91;;;12.69;100.00
72157;BME280;60035;52.122;5.406;2023-09-19T05:25:35;100992.38;;;12.71;100.00
72157;BME280;60035;52.122;5.406;2023-09-19T05:28:07;100997.59;;;12.70;100.00
72157;BME280;60035;52.122;5.406;2023-09-19T05:30:35;101002.66;;;12.71;100.00
72157;BME280;60035;52.122;5.406;2023-09-19T05:33:12;100997.50;;;12.73;100.00
72157;BME280;60035;52.122;5.406;2023-09-19T05:35:38;101004.34;;;12.72;100.00
72157;BME280;60035;52.122;5.406;2023-09-19T05:38:08;100986.28;;;12.74;100.00
72157;BME280;60035;52.122;5.406;2023-09-19T05:40:39;100990.50;;;12.76;100.00
72157;BME280;60035;52.122;5.406;2023-09-19T05:43:09;100989.53;;;12.79;100.00
72157;BME280;60035;52.122;5.406;2023-09-19T05:45:35;100993.63;;;12.85;100.00
72157;BME280;60035;52.122;5.406;2023-09-19T05:48:10;100991.72;;;12.90;100.00
72157;BME280;60035;52.122;5.406;2023-09-19T05:50:38;100991.63;;;12.93;100.00
72157;BME280;60035;52.122;5.406;2023-09-19T05:53:05;100994.00;;;12.97;100.00
72157;BME280;60035;52.122;5.406;2023-09-19T05:55:32;100991.22;;;13.04;100.00
72157;BME280;60035;52.122;5.406;2023-09-19T05:57:59;100999.66;;;13.07;100.00
72157;BME280;60035;52.122;5.406;2023-09-19T06:00:26;101005.47;;;13.12;100.00
72157;BME280;60035;52.122;5.406;2023-09-19T06:02:55;101006.22;;;13.14;100.00
72157;BME280;60035;52.122;5.406;2023-09-19T06:05:23;101004.38;;;13.18;100.00
72157;BME280;60035;52.122;5.406;2023-09-19T06:07:50;101011.16;;;13.21;100.00
72157;BME280;60035;52.122;5.406;2023-09-19T06:10:17;101016.16;;;13.24;100.00
72157;BME280;60035;52.122;5.406;2023-09-19T06:12:44;101022.09;;;13.26;100.00
72157;BME280;60035;52.122;5.406;2023-09-19T06:15:12;101029.81;;;13.26;100.00
72157;BME280;60035;52.122;5.406;2023-09-19T06:17:49;101029.81;;;13.26;100.00
72157;BME280;60035;52.122;5.406;2023-09-19T06:20:16;101023.00;;;13.25;100.00
72157;BME280;60035;52.122;5.406;2023-09-19T06:22:45;101028.91;;;13.27;100.00
72157;BME280;60035;52.122;5.406;2023-09-19T06:25:13;101028.81;;;13.30;100.00
72157;BME280;60035;52.122;5.406;2023-09-19T06:28:01;101037.25;;;13.33;100.00
72157;BME280;60035;52.122;5.406;2023-09-19T06:30:31;101026.88;;;13.37;100.00
72157;BME280;60035;52.122;5.406;2023-09-19T06:32:59;101024.22;;;13.38;100.00
72157;BME280;60035;52.122;5.406;2023-09-19T06:35:27;101028.34;;;13.42;100.00
72157;BME280;60035;52.122;5.406;2023-09-19T06:37:56;101019.63;;;13.46;100.00
72157;BME280;60035;52.122;5.406;2023-09-19T06:40:25;101027.09;;;13.53;100.00
72157;BME280;60035;52.122;5.406;2023-09-19T06:42:52;101019.25;;;13.56;100.00
72157;BME280;60035;52.122;5.406;2023-09-19T06:45:19;101025.06;;;13.61;100.00
72157;BME280;60035;52.122;5.406;2023-09-19T06:47:49;101012.84;;;13.66;100.00
72157;BME280;60035;52.122;5.406;2023-09-19T06:50:20;101022.13;;;13.70;100.00
72157;BME280;60035;52.122;5.406;2023-09-19T06:52:53;101022.72;;;13.77;100.00
72157;BME280;60035;52.122;5.406;2023-09-19T06:55:29;101025.06;;;13.83;100.00
72157;BME280;60035;52.122;5.406;2023-09-19T06:57:59;101024.03;;;13.87;100.00
72157;BME280;60035;52.122;5.406;2023-09-19T07:00:26;101027.25;;;13.92;100.00
72157;BME280;60035;52.122;5.406;2023-09-19T07:03:06;101021.09;;;13.96;100.00
72157;BME280;60035;52.122;5.406;2023-09-19T07:05:39;101021.66;;;14.03;100.00
72157;BME280;60035;52.122;5.406;2023-09-19T07:08:08;101020.56;;;14.09;100.00
72157;BME280;60035;52.122;5.406;2023-09-19T07:10:35;101017.81;;;14.13;100.00
72157;BME280;60035;52.122;5.406;2023-09-19T07:13:04;101017.50;;;14.21;100.00
72157;BME280;60035;52.122;5.406;2023-09-19T07:15:33;101013.75;;;14.28;100.00
72157;BME280;60035;52.122;5.406;2023-09-19T07:18:06;101021.97;;;14.37;100.00
72157;BME280;60035;52.122;5.406;2023-09-19T07:20:35;101020.00;;;14.43;100.00
72157;BME280;60035;52.122;5.406;2023-09-19T07:23:02;101025.66;;;14.52;100.00
72157;BME280;60035;52.122;5.406;2023-09-19T07:25:29;101033.06;;;14.59;100.00
72157;BME280;60035;52.122;5.406;2023-09-19T07:27:57;101038.03;;;14.64;100.00
72157;BME280;60035;52.122;5.406;2023-09-19T07:30:27;101036.09;;;14.69;100.00
72157;BME280;60035;52.122;5.406;2023-09-19T07:32:54;101049.69;;;14.73;100.00
72157;BME280;60035;52.122;5.406;2023-09-19T07:35:21;101046.91;;;14.77;100.00
72157;BME280;60035;52.122;5.406;2023-09-19T07:37:49;101053.56;;;14.83;100.00
72157;BME280;60035;52.122;5.406;2023-09-19T07:40:17;101047.13;;;14.92;100.00
72157;BME280;60035;52.122;5.406;2023-09-19T07:42:44;101050.19;;;15.00;100.00
72157;BME280;60035;52.122;5.406;2023-09-19T07:45:13;101038.78;;;15.06;100.00
72157;BME280;60035;52.122;5.406;2023-09-19T07:47:48;101048.69;;;15.15;100.00
72157;BME280;60035;52.122;5.406;2023-09-19T07:50:16;101045.78;;;15.23;100.00
72157;BME280;60035;52.122;5.406;2023-09-19T07:52:44;101048.91;;;15.29;100.00
72157;BME280;60035;52.122;5.406;2023-09-19T07:55:11;101049.31;;;15.39;100.00
72157;BME280;60035;52.122;5.406;2023-09-19T07:57:43;101059.53;;;15.41;100.00
72157;BME280;60035;52.122;5.406;2023-09-19T08:00:10;101048.06;;;15.48;100.00
72157;BME280;60035;52.122;5.406;2023-09-19T08:02:38;101048.69;;;15.53;100.00
72157;BME280;60035;52.122;5.406;2023-09-19T08:05:06;101058.00;;;15.56;100.00
72157;BME280;60035;52.122;5.406;2023-09-19T08:07:33;101051.41;;;15.68;100.00
72157;BME280;60035;52.122;5.406;2023-09-19T08:09:59;101052.56;;;15.79;100.00
72157;BME280;60035;52.122;5.406;2023-09-19T08:12:26;101055.59;;;15.89;100.00
72157;BME280;60035;52.122;5.406;2023-09-19T08:14:53;101054.53;;;15.93;100.00
72157;BME280;60035;52.122;5.406;2023-09-19T08:17:19;101054.91;;;16.03;100.00
72157;BME280;60035;52.122;5.406;2023-09-19T08:19:46;101044.66;;;16.02;100.00
72157;BME280;60035;52.122;5.406;2023-09-19T08:22:12;101048.91;;;16.03;100.00
72157;BME280;60035;52.122;5.406;2023-09-19T08:24:39;101042.84;;;16.04;100.00
72157;BME280;60035;52.122;5.406;2023-09-19T08:27:05;101047.63;;;16.11;100.00
72157;BME280;60035;52.122;5.406;2023-09-19T08:29:35;101047.09;;;16.22;100.00
72157;BME280;60035;52.122;5.406;2023-09-19T08:32:02;101046.03;;;16.26;100.00
72157;BME280;60035;52.122;5.406;2023-09-19T08:34:29;101046.56;;;16.33;100.00
72157;BME280;60035;52.122;5.406;2023-09-19T08:36:59;101045.66;;;16.34;100.00
72157;BME280;60035;52.122;5.406;2023-09-19T08:39:26;101043.72;;;16.38;100.00
72157;BME280;60035;52.122;5.406;2023-09-19T08:41:59;101041.22;;;16.36;100.00
72157;BME280;60035;52.122;5.406;2023-09-19T08:44:27;101040.00;;;16.43;100.00
72157;BME280;60035;52.122;5.406;2023-09-19T08:47:10;101046.44;;;16.52;100.00
72157;BME280;60035;52.122;5.406;2023-09-19T08:49:57;101033.03;;;16.61;100.00
72157;BME280;60035;52.122;5.406;2023-09-19T08:52:32;101033.50;;;16.70;100.00
72157;BME280;60035;52.122;5.406;2023-09-19T08:55:02;101028.88;;;16.75;100.00
72157;BME280;60035;52.122;5.406;2023-09-19T08:57:45;101033.75;;;16.81;100.00
72157;BME280;60035;52.122;5.406;2023-09-19T09:00:16;101035.25;;;16.85;100.00
72157;BME280;60035;52.122;5.406;2023-09-19T09:02:48;101035.47;;;16.98;100.00
72157;BME280;60035;52.122;5.406;2023-09-19T09:05:16;101028.81;;;17.10;100.00
72157;BME280;60035;52.122;5.406;2023-09-19T09:07:49;101035.00;;;17.23;100.00
72157;BME280;60035;52.122;5.406;2023-09-19T09:10:21;101042.66;;;17.25;100.00
72157;BME280;60035;52.122;5.406;2023-09-19T09:12:52;101037.34;;;17.28;100.00
72157;BME280;60035;52.122;5.406;2023-09-19T09:15:22;101033.06;;;17.27;100.00
72157;BME280;60035;52.122;5.406;2023-09-19T09:17:50;101037.84;;;17.35;100.00
72157;BME280;60035;52.122;5.406;2023-09-19T09:20:20;101035.84;;;17.40;100.00
72157;BME280;60035;52.122;5.406;2023-09-19T09:25:21;101030.13;;;17.65;100.00
72157;BME280;60035;52.122;5.406;2023-09-19T09:28:01;101030.91;;;17.81;100.00
72157;BME280;60035;52.122;5.406;2023-09-19T09:30:35;101031.38;;;17.88;100.00
72157;BME280;60035;52.122;5.406;2023-09-19T09:33:13;101030.97;;;17.96;100.00
72157;BME280;60035;52.122;5.406;2023-09-19T09:35:58;101023.41;;;17.93;98.75
72157;BME280;60035;52.122;5.406;2023-09-19T09:38:42;101022.09;;;18.00;98.00
72157;BME280;60035;52.122;5.406;2023-09-19T09:41:10;101026.50;;;18.14;99.57
72157;BME280;60035;52.122;5.406;2023-09-19T09:43:39;101028.72;;;18.35;97.79
72157;BME280;60035;52.122;5.406;2023-09-19T09:49:00;101012.72;;;18.42;96.07
72157;BME280;60035;52.122;5.406;2023-09-19T09:52:06;101010.13;;;18.57;94.24
72157;BME280;60035;52.122;5.406;2023-09-19T09:54:37;101006.53;;;18.59;94.09
72157;BME280;60035;52.122;5.406;2023-09-19T09:57:10;101007.72;;;18.54;92.95
72157;BME280;60035;52.122;5.406;2023-09-19T09:59:59;101005.66;;;18.73;94.09
72157;BME280;60035;52.122;5.406;2023-09-19T10:02:42;101013.47;;;18.59;90.42
72157;BME280;60035;52.122;5.406;2023-09-19T10:05:18;101008.81;;;18.64;91.83
72157;BME280;60035;52.122;5.406;2023-09-19T10:07:50;101014.50;;;18.56;90.67
72157;BME280;60035;52.122;5.406;2023-09-19T10:10:35;101015.78;;;18.78;91.44
72157;BME280;60035;52.122;5.406;2023-09-19T10:13:10;101025.50;;;18.74;91.12
72157;BME280;60035;52.122;5.406;2023-09-19T10:15:42;101023.38;;;18.67;89.63
72157;BME280;60035;52.122;5.406;2023-09-19T10:18:26;101024.56;;;18.61;90.71
72157;BME280;60035;52.122;5.406;2023-09-19T10:20:56;101022.09;;;18.59;90.50
72157;BME280;60035;52.122;5.406;2023-09-19T10:23:23;101024.13;;;18.54;88.12
72157;BME280;60035;52.122;5.406;2023-09-19T10:25:53;101010.94;;;18.57;88.73
72157;BME280;60035;52.122;5.406;2023-09-19T10:28:21;100997.72;;;18.76;88.21
72157;BME280;60035;52.122;5.406;2023-09-19T10:30:52;100997.16;;;19.00;88.02
72157;BME280;60035;52.122;5.406;2023-09-19T10:33:21;100986.09;;;19.11;88.12
72157;BME280;60035;52.122;5.406;2023-09-19T10:35:49;100991.66;;;19.05;87.70
72157;BME280;60035;52.122;5.406;2023-09-19T10:38:24;100981.22;;;19.19;87.38
72157;BME280;60035;52.122;5.406;2023-09-19T10:40:53;100968.97;;;19.48;86.25
72157;BME280;60035;52.122;5.406;2023-09-19T10:43:21;100972.63;;;19.59;84.37
72157;BME280;60035;52.122;5.406;2023-09-19T10:45:49;100973.53;;;19.45;84.79
72157;BME280;60035;52.122;5.406;2023-09-19T10:48:18;100966.41;;;19.34;85.14
72157;BME280;60035;52.122;5.406;2023-09-19T10:50:50;100975.72;;;19.38;86.02
72157;BME280;60035;52.122;5.406;2023-09-19T10:53:18;100967.47;;;19.31;85.66
72157;BME280;60035;52.122;5.406;2023-09-19T10:55:56;100972.75;;;19.30;87.42
72157;BME280;60035;52.122;5.406;2023-09-19T10:58:31;100973.88;;;19.26;84.58
72157;BME280;60035;52.122;5.406;2023-09-19T11:01:05;100955.00;;;19.37;84.91
72157;BME280;60035;52.122;5.406;2023-09-19T11:03:39;100956.72;;;19.51;85.11
72157;BME280;60035;52.122;5.406;2023-09-19T11:06:13;100964.66;;;19.62;84.34
72157;BME280;60035;52.122;5.406;2023-09-19T11:11:46;100944.41;;;19.80;84.16
72157;BME280;60035;52.122;5.406;2023-09-19T11:30:52;100946.72;;;20.23;80.64
72157;BME280;60035;52.122;5.406;2023-09-19T11:33:31;100945.69;;;20.00;80.52
72157;BME280;60035;52.122;5.406;2023-09-19T11:46:54;100923.41;;;19.30;82.27
72157;BME280;60035;52.122;5.406;2023-09-19T11:49:27;100933.63;;;19.33;81.09
72157;BME280;60035;52.122;5.406;2023-09-19T11:51:59;100917.00;;;19.48;82.22
72157;BME280;60035;52.122;5.406;2023-09-19T11:54:32;100923.91;;;19.62;79.91
72157;BME280;60035;52.122;5.406;2023-09-19T11:57:00;100925.47;;;19.65;79.30
72157;BME280;60035;52.122;5.406;2023-09-19T11:59:28;100907.78;;;19.57;78.92
72157;BME280;60035;52.122;5.406;2023-09-19T12:02:05;100926.63;;;19.61;80.36
72157;BME280;60035;52.122;5.406;2023-09-19T12:04:43;100922.84;;;19.52;80.18
72157;BME280;60035;52.122;5.406;2023-09-19T12:07:13;100936.97;;;19.48;78.98
72157;BME280;60035;52.122;5.406;2023-09-19T12:10:04;100942.56;;;19.42;79.99
72157;BME280;60035;52.122;5.406;2023-09-19T12:12:32;100944.03;;;19.46;79.84
72157;BME280;60035;52.122;5.406;2023-09-19T12:15:01;100933.97;;;19.67;79.71
72157;BME280;60035;52.122;5.406;2023-09-19T12:17:40;100914.91;;;19.81;78.96
72157;BME280;60035;52.122;5.406;2023-09-19T12:20:09;100940.22;;;19.77;80.68
72157;BME280;60035;52.122;5.406;2023-09-19T12:22:44;100933.00;;;19.83;78.60
72157;BME280;60035;52.122;5.406;2023-09-19T12:25:13;100932.19;;;19.82;79.64
72157;BME280;60035;52.122;5.406;2023-09-19T12:30:10;100929.81;;;19.52;78.73
72157;BME280;60035;52.122;5.406;2023-09-19T12:32:54;100940.72;;;19.44;81.08
72157;BME280;60035;52.122;5.406;2023-09-19T12:37:57;100925.44;;;19.52;81.59
72157;BME280;60035;52.122;5.406;2023-09-19T12:40:24;100922.56;;;19.57;80.81
72157;BME280;60035;52.122;5.406;2023-09-19T12:42:57;100930.97;;;19.47;80.61
72157;BME280;60035;52.122;5.406;2023-09-19T12:45:30;100923.13;;;19.35;81.49
72157;BME280;60035;52.122;5.406;2023-09-19T12:48:25;100929.22;;;19.21;81.30
72157;BME280;60035;52.122;5.406;2023-09-19T12:51:12;100939.56;;;19.08;82.85
72157;BME280;60035;52.122;5.406;2023-09-19T12:56:12;100939.56;;;19.08;85.59
72157;BME280;60035;52.122;5.406;2023-09-19T12:58:49;100932.50;;;19.10;84.72
72157;BME280;60035;52.122;5.406;2023-09-19T13:01:16;100946.47;;;19.22;84.65
72157;BME280;60035;52.122;5.406;2023-09-19T13:03:43;100940.66;;;19.31;84.55
72157;BME280;60035;52.122;5.406;2023-09-19T13:06:10;100935.09;;;19.37;83.52
72157;BME280;60035;52.122;5.406;2023-09-19T13:08:39;100932.16;;;19.42;83.51
72157;BME280;60035;52.122;5.406;2023-09-19T13:11:12;100923.16;;;19.60;84.08
72157;BME280;60035;52.122;5.406;2023-09-19T13:13:44;100923.69;;;19.65;82.70
72157;BME280;60035;52.122;5.406;2023-09-19T13:16:16;100938.31;;;19.54;83.80
72157;BME280;60035;52.122;5.406;2023-09-19T13:18:54;100937.78;;;19.36;83.75
72157;BME280;60035;52.122;5.406;2023-09-19T13:21:28;100947.38;;;19.21;85.74
72157;BME280;60035;52.122;5.406;2023-09-19T13:24:23;100948.94;;;19.10;86.81
72157;BME280;60035;52.122;5.406;2023-09-19T13:26:52;100954.69;;;19.01;88.73
72157;BME280;60035;52.122;5.406;2023-09-19T13:29:19;100957.38;;;18.85;88.39
72157;BME280;60035;52.122;5.406;2023-09-19T13:31:47;100944.31;;;18.87;88.44
72157;BME280;60035;52.122;5.406;2023-09-19T13:34:14;100936.34;;;19.04;88.24
72157;BME280;60035;52.122;5.406;2023-09-19T13:36:43;100934.00;;;19.27;86.99
72157;BME280;60035;52.122;5.406;2023-09-19T13:39:10;100938.72;;;19.35;87.54
72157;BME280;60035;52.122;5.406;2023-09-19T13:41:39;100932.31;;;19.53;86.63
72157;BME280;60035;52.122;5.406;2023-09-19T13:44:06;100918.59;;;19.64;84.12
72157;BME280;60035;52.122;5.406;2023-09-19T13:46:32;100925.06;;;19.71;82.98
72157;BME280;60035;52.122;5.406;2023-09-19T13:49:01;100928.78;;;19.67;84.46
72157;BME280;60035;52.122;5.406;2023-09-19T13:51:32;100913.03;;;19.83;84.21
72157;BME280;60035;52.122;5.406;2023-09-19T13:53:59;100910.94;;;19.88;84.46
72157;BME280;60035;52.122;5.406;2023-09-19T13:56:26;100902.81;;;19.80;82.06
72157;BME280;60035;52.122;5.406;2023-09-19T13:58:57;100915.78;;;19.67;82.42
72157;BME280;60035;52.122;5.406;2023-09-19T14:01:23;100905.19;;;19.57;82.79